sensor_id;sensor_type;location;lat;lon;timestamp;P1;durP1;ratioP1;P2;durP2;ratioP2
72611;SDS011;60655;52.182;4.474;2024-02-21T00:00:11;10.55;;;1.58;;
72611;SDS011;60655;52.182;4.474;2024-02-21T00:02:12;12.95;;;1.90;;
72611;SDS011;60655;52.182;4.474;2024-02-21T00:04:13;17.77;;;2.15;;
72611;SDS011;60655;52.182;4.474;2024-02-21T00:08:15;14.95;;;2.28;;
72611;SDS011;60655;52.182;4.474;2024-02-21T00:10:16;13.63;;;2.15;;
72611;SDS011;60655;52.182;4.474;2024-02-21T00:12:16;16.17;;;2.75;;
72611;SDS011;60655;52.182;4.474;2024-02-21T00:14:17;18.33;;;2.17;;
72611;SDS011;60655;52.182;4.474;2024-02-21T00:16:18;13.38;;;1.90;;
72611;SDS011;60655;52.182;4.474;2024-02-21T00:18:19;19.70;;;1.88;;
72611;SDS011;60655;52.182;4.474;2024-02-21T00:22:21;14.07;;;1.75;;
72611;SDS011;60655;52.182;4.474;2024-02-21T00:24:22;13.85;;;1.70;;
72611;SDS011;60655;52.182;4.474;2024-02-21T00:26:23;18.90;;;2.33;;
72611;SDS011;60655;52.182;4.474;2024-02-21T00:28:24;25.20;;;2.78;;
72611;SDS011;60655;52.182;4.474;2024-02-21T00:30:25;14.40;;;1.75;;
72611;SDS011;60655;52.182;4.474;2024-02-21T00:32:26;17.05;;;2.05;;
72611;SDS011;60655;52.182;4.474;2024-02-21T00:34:27;21.23;;;2.25;;
72611;SDS011;60655;52.182;4.474;2024-02-21T00:36:27;19.30;;;2.38;;
72611;SDS011;60655;52.182;4.474;2024-02-21T00:40:29;16.98;;;3.13;;
72611;SDS011;60655;52.182;4.474;2024-02-21T00:42:30;11.27;;;2.15;;
72611;SDS011;60655;52.182;4.474;2024-02-21T00:44:31;21.75;;;2.22;;
72611;SDS011;60655;52.182;4.474;2024-02-21T00:46:32;14.85;;;2.28;;
72611;SDS011;60655;52.182;4.474;2024-02-21T00:48:33;22.83;;;2.63;;
72611;SDS011;60655;52.182;4.474;2024-02-21T00:50:34;19.13;;;2.20;;
72611;SDS011;60655;52.182;4.474;2024-02-21T00:52:35;24.15;;;2.63;;
72611;SDS011;60655;52.182;4.474;2024-02-21T00:54:36;10.27;;;1.63;;
72611;SDS011;60655;52.182;4.474;2024-02-21T00:56:37;14.98;;;1.88;;
72611;SDS011;60655;52.182;4.474;2024-02-21T00:58:38;15.05;;;2.22;;
72611;SDS011;60655;52.182;4.474;2024-02-21T01:00:39;20.08;;;2.47;;
72611;SDS011;60655;52.182;4.474;2024-02-21T01:02:40;16.63;;;2.10;;
72611;SDS011;60655;52.182;4.474;2024-02-21T01:04:41;13.38;;;1.90;;
72611;SDS011;60655;52.182;4.474;2024-02-21T01:06:42;26.30;;;2.20;;
72611;SDS011;60655;52.182;4.474;2024-02-21T01:08:45;12.05;;;1.98;;
72611;SDS011;60655;52.182;4.474;2024-02-21T01:10:50;16.67;;;2.53;;
72611;SDS011;60655;52.182;4.474;2024-02-21T01:12:51;14.57;;;2.38;;
72611;SDS011;60655;52.182;4.474;2024-02-21T01:14:51;22.58;;;2.97;;
72611;SDS011;60655;52.182;4.474;2024-02-21T01:16:53;19.80;;;2.15;;
72611;SDS011;60655;52.182;4.474;2024-02-21T01:18:53;26.83;;;2.33;;
72611;SDS011;60655;52.182;4.474;2024-02-21T01:20:54;15.05;;;2.25;;
72611;SDS011;60655;52.182;4.474;2024-02-21T01:22:55;18.70;;;2.15;;
72611;SDS011;60655;52.182;4.474;2024-02-21T01:24:56;19.13;;;2.47;;
72611;SDS011;60655;52.182;4.474;2024-02-21T01:26:57;14.70;;;2.60;;
72611;SDS011;60655;52.182;4.474;2024-02-21T01:28:58;20.05;;;2.83;;
72611;SDS011;60655;52.182;4.474;2024-02-21T01:30:59;18.08;;;2.17;;
72611;SDS011;60655;52.182;4.474;2024-02-21T01:33:00;13.25;;;1.77;;
72611;SDS011;60655;52.182;4.474;2024-02-21T01:35:01;20.98;;;3.08;;
72611;SDS011;60655;52.182;4.474;2024-02-21T01:37:02;17.27;;;2.47;;
72611;SDS011;60655;52.182;4.474;2024-02-21T01:39:04;17.10;;;2.50;;
72611;SDS011;60655;52.182;4.474;2024-02-21T01:41:05;21.63;;;2.03;;
72611;SDS011;60655;52.182;4.474;2024-02-21T01:43:16;18.75;;;2.17;;
72611;SDS011;60655;52.182;4.474;2024-02-21T01:45:20;22.95;;;1.98;;
72611;SDS011;60655;52.182;4.474;2024-02-21T01:47:22;21.08;;;2.92;;
72611;SDS011;60655;52.182;4.474;2024-02-21T01:49:23;16.65;;;2.45;;
72611;SDS011;60655;52.182;4.474;2024-02-21T01:51:25;27.45;;;2.53;;
72611;SDS011;60655;52.182;4.474;2024-02-21T01:53:36;18.88;;;2.38;;
72611;SDS011;60655;52.182;4.474;2024-02-21T01:55:43;19.23;;;2.50;;
72611;SDS011;60655;52.182;4.474;2024-02-21T01:57:46;21.42;;;2.70;;
72611;SDS011;60655;52.182;4.474;2024-02-21T02:01:48;21.85;;;2.40;;
72611;SDS011;60655;52.182;4.474;2024-02-21T02:03:53;20.65;;;2.25;;
72611;SDS011;60655;52.182;4.474;2024-02-21T02:05:55;20.95;;;2.33;;
72611;SDS011;60655;52.182;4.474;2024-02-21T02:09:57;22.50;;;2.30;;
72611;SDS011;60655;52.182;4.474;2024-02-21T02:13:59;20.10;;;2.25;;
72611;SDS011;60655;52.182;4.474;2024-02-21T02:18:01;14.93;;;1.92;;
72611;SDS011;60655;52.182;4.474;2024-02-21T02:20:02;21.33;;;2.15;;
72611;SDS011;60655;52.182;4.474;2024-02-21T02:22:09;19.92;;;2.20;;
72611;SDS011;60655;52.182;4.474;2024-02-21T02:24:18;19.92;;;2.33;;
72611;SDS011;60655;52.182;4.474;2024-02-21T02:26:21;15.73;;;2.10;;
72611;SDS011;60655;52.182;4.474;2024-02-21T02:28:22;14.48;;;1.88;;
72611;SDS011;60655;52.182;4.474;2024-02-21T02:30:22;15.95;;;2.65;;
72611;SDS011;60655;52.182;4.474;2024-02-21T02:32:23;25.95;;;3.03;;
72611;SDS011;60655;52.182;4.474;2024-02-21T02:36:25;15.38;;;1.95;;
72611;SDS011;60655;52.182;4.474;2024-02-21T02:40:27;10.98;;;1.90;;
72611;SDS011;60655;52.182;4.474;2024-02-21T02:44:28;18.65;;;2.30;;
72611;SDS011;60655;52.182;4.474;2024-02-21T02:46:29;17.50;;;2.08;;
72611;SDS011;60655;52.182;4.474;2024-02-21T02:50:31;19.70;;;3.40;;
72611;SDS011;60655;52.182;4.474;2024-02-21T02:54:32;19.75;;;2.25;;
72611;SDS011;60655;52.182;4.474;2024-02-21T02:56:33;13.52;;;2.20;;
72611;SDS011;60655;52.182;4.474;2024-02-21T02:58:34;24.25;;;2.58;;
72611;SDS011;60655;52.182;4.474;2024-02-21T03:00:35;18.80;;;2.28;;
72611;SDS011;60655;52.182;4.474;2024-02-21T03:02:37;17.88;;;2.80;;
72611;SDS011;60655;52.182;4.474;2024-02-21T03:04:39;15.82;;;2.33;;
72611;SDS011;60655;52.182;4.474;2024-02-21T03:06:40;15.23;;;2.38;;
72611;SDS011;60655;52.182;4.474;2024-02-21T03:08:41;21.63;;;2.15;;
72611;SDS011;60655;52.182;4.474;2024-02-21T03:10:43;17.65;;;2.00;;
72611;SDS011;60655;52.182;4.474;2024-02-21T03:12:44;16.10;;;2.45;;
72611;SDS011;60655;52.182;4.474;2024-02-21T03:14:45;12.20;;;1.88;;
72611;SDS011;60655;52.182;4.474;2024-02-21T03:18:47;17.27;;;1.88;;
72611;SDS011;60655;52.182;4.474;2024-02-21T03:20:48;19.58;;;1.90;;
72611;SDS011;60655;52.182;4.474;2024-02-21T03:24:49;14.02;;;2.20;;
72611;SDS011;60655;52.182;4.474;2024-02-21T03:26:50;16.00;;;2.35;;
72611;SDS011;60655;52.182;4.474;2024-02-21T03:30:52;25.45;;;2.40;;
72611;SDS011;60655;52.182;4.474;2024-02-21T03:32:53;19.55;;;2.63;;
72611;SDS011;60655;52.182;4.474;2024-02-21T03:34:54;18.05;;;2.33;;
72611;SDS011;60655;52.182;4.474;2024-02-21T03:36:55;23.80;;;2.78;;
72611;SDS011;60655;52.182;4.474;2024-02-21T03:40:57;10.25;;;1.70;;
72611;SDS011;60655;52.182;4.474;2024-02-21T03:42:58;20.38;;;2.55;;
72611;SDS011;60655;52.182;4.474;2024-02-21T03:44:58;16.27;;;2.67;;
72611;SDS011;60655;52.182;4.474;2024-02-21T03:46:59;23.30;;;2.67;;
72611;SDS011;60655;52.182;4.474;2024-02-21T03:49:00;15.77;;;2.35;;
72611;SDS011;60655;52.182;4.474;2024-02-21T03:53:03;15.43;;;2.72;;
72611;SDS011;60655;52.182;4.474;2024-02-21T03:55:04;14.95;;;2.15;;
72611;SDS011;60655;52.182;4.474;2024-02-21T03:57:05;20.75;;;2.75;;
72611;SDS011;60655;52.182;4.474;2024-02-21T03:59:07;19.60;;;3.17;;
72611;SDS011;60655;52.182;4.474;2024-02-21T04:01:08;15.63;;;2.60;;
72611;SDS011;60655;52.182;4.474;2024-02-21T04:03:09;15.77;;;2.60;;
72611;SDS011;60655;52.182;4.474;2024-02-21T04:05:10;15.93;;;2.70;;
72611;SDS011;60655;52.182;4.474;2024-02-21T04:07:12;16.33;;;3.38;;
72611;SDS011;60655;52.182;4.474;2024-02-21T04:09:13;20.13;;;3.10;;
72611;SDS011;60655;52.182;4.474;2024-02-21T04:11:14;15.88;;;3.10;;
72611;SDS011;60655;52.182;4.474;2024-02-21T04:13:15;18.38;;;3.10;;
72611;SDS011;60655;52.182;4.474;2024-02-21T04:15:16;19.42;;;3.55;;
72611;SDS011;60655;52.182;4.474;2024-02-21T04:17:17;20.50;;;3.78;;
72611;SDS011;60655;52.182;4.474;2024-02-21T04:19:18;16.23;;;3.38;;
72611;SDS011;60655;52.182;4.474;2024-02-21T04:21:19;14.98;;;3.08;;
72611;SDS011;60655;52.182;4.474;2024-02-21T04:25:21;16.92;;;3.22;;
72611;SDS011;60655;52.182;4.474;2024-02-21T04:27:22;20.08;;;2.92;;
72611;SDS011;60655;52.182;4.474;2024-02-21T04:29:23;18.42;;;3.08;;
72611;SDS011;60655;52.182;4.474;2024-02-21T04:31:24;22.65;;;3.28;;
72611;SDS011;60655;52.182;4.474;2024-02-21T04:33:25;12.07;;;2.83;;
72611;SDS011;60655;52.182;4.474;2024-02-21T04:35:26;17.15;;;3.92;;
72611;SDS011;60655;52.182;4.474;2024-02-21T04:37:27;15.45;;;3.65;;
72611;SDS011;60655;52.182;4.474;2024-02-21T04:39:28;22.27;;;3.55;;
72611;SDS011;60655;52.182;4.474;2024-02-21T04:41:29;19.88;;;3.38;;
72611;SDS011;60655;52.182;4.474;2024-02-21T04:43:29;15.65;;;3.67;;
72611;SDS011;60655;52.182;4.474;2024-02-21T04:45:30;14.75;;;3.80;;
72611;SDS011;60655;52.182;4.474;2024-02-21T04:47:32;11.50;;;3.47;;
72611;SDS011;60655;52.182;4.474;2024-02-21T04:49:33;16.63;;;4.13;;
72611;SDS011;60655;52.182;4.474;2024-02-21T04:51:34;15.40;;;3.50;;
72611;SDS011;60655;52.182;4.474;2024-02-21T04:53:35;13.18;;;3.40;;
72611;SDS011;60655;52.182;4.474;2024-02-21T04:55:36;15.48;;;3.45;;
72611;SDS011;60655;52.182;4.474;2024-02-21T04:57:37;14.45;;;3.75;;
72611;SDS011;60655;52.182;4.474;2024-02-21T04:59:38;18.05;;;3.80;;
72611;SDS011;60655;52.182;4.474;2024-02-21T05:01:39;17.42;;;4.55;;
72611;SDS011;60655;52.182;4.474;2024-02-21T05:03:40;15.70;;;3.85;;
72611;SDS011;60655;52.182;4.474;2024-02-21T05:05:40;17.50;;;4.50;;
72611;SDS011;60655;52.182;4.474;2024-02-21T05:07:41;15.68;;;3.97;;
72611;SDS011;60655;52.182;4.474;2024-02-21T05:09:42;14.02;;;3.70;;
72611;SDS011;60655;52.182;4.474;2024-02-21T05:11:43;12.10;;;3.22;;
72611;SDS011;60655;52.182;4.474;2024-02-21T05:13:44;21.00;;;3.95;;
72611;SDS011;60655;52.182;4.474;2024-02-21T05:15:46;18.95;;;4.07;;
72611;SDS011;60655;52.182;4.474;2024-02-21T05:17:47;16.80;;;4.47;;
72611;SDS011;60655;52.182;4.474;2024-02-21T05:19:47;12.63;;;3.63;;
72611;SDS011;60655;52.182;4.474;2024-02-21T05:21:48;18.52;;;4.20;;
72611;SDS011;60655;52.182;4.474;2024-02-21T05:23:50;15.70;;;3.90;;
72611;SDS011;60655;52.182;4.474;2024-02-21T05:25:51;15.88;;;4.35;;
72611;SDS011;60655;52.182;4.474;2024-02-21T05:27:52;15.60;;;4.10;;
72611;SDS011;60655;52.182;4.474;2024-02-21T05:29:56;12.80;;;4.05;;
72611;SDS011;60655;52.182;4.474;2024-02-21T05:31:57;14.80;;;3.95;;
72611;SDS011;60655;52.182;4.474;2024-02-21T05:33:58;16.63;;;3.80;;
72611;SDS011;60655;52.182;4.474;2024-02-21T05:35:59;13.20;;;3.50;;
72611;SDS011;60655;52.182;4.474;2024-02-21T05:40:01;17.30;;;4.25;;
72611;SDS011;60655;52.182;4.474;2024-02-21T05:44:03;14.02;;;3.78;;
72611;SDS011;60655;52.182;4.474;2024-02-21T05:46:04;13.23;;;3.55;;
72611;SDS011;60655;52.182;4.474;2024-02-21T05:48:05;11.13;;;4.10;;
72611;SDS011;60655;52.182;4.474;2024-02-21T05:50:06;17.13;;;4.50;;
72611;SDS011;60655;52.182;4.474;2024-02-21T05:52:07;19.05;;;4.95;;
72611;SDS011;60655;52.182;4.474;2024-02-21T05:56:12;12.30;;;4.80;;
72611;SDS011;60655;52.182;4.474;2024-02-21T05:58:14;18.67;;;6.00;;
72611;SDS011;60655;52.182;4.474;2024-02-21T06:00:15;16.00;;;5.47;;
72611;SDS011;60655;52.182;4.474;2024-02-21T06:02:16;14.38;;;5.13;;
72611;SDS011;60655;52.182;4.474;2024-02-21T06:04:17;16.48;;;5.38;;
72611;SDS011;60655;52.182;4.474;2024-02-21T06:08:18;12.40;;;5.00;;
72611;SDS011;60655;52.182;4.474;2024-02-21T06:10:20;15.63;;;5.60;;
72611;SDS011;60655;52.182;4.474;2024-02-21T06:12:21;13.52;;;5.30;;
72611;SDS011;60655;52.182;4.474;2024-02-21T06:16:23;18.55;;;6.05;;
72611;SDS011;60655;52.182;4.474;2024-02-21T06:20:25;16.17;;;5.22;;
72611;SDS011;60655;52.182;4.474;2024-02-21T06:24:26;20.02;;;5.38;;
72611;SDS011;60655;52.182;4.474;2024-02-21T06:28:28;19.85;;;6.53;;
72611;SDS011;60655;52.182;4.474;2024-02-21T06:32:29;14.85;;;5.60;;
72611;SDS011;60655;52.182;4.474;2024-02-21T06:36:31;15.30;;;5.47;;
72611;SDS011;60655;52.182;4.474;2024-02-21T06:40:34;16.80;;;5.82;;
72611;SDS011;60655;52.182;4.474;2024-02-21T06:42:39;13.70;;;5.78;;
72611;SDS011;60655;52.182;4.474;2024-02-21T06:46:41;15.63;;;6.53;;
72611;SDS011;60655;52.182;4.474;2024-02-21T06:50:42;16.40;;;6.78;;
72611;SDS011;60655;52.182;4.474;2024-02-21T06:52:43;22.27;;;7.60;;
72611;SDS011;60655;52.182;4.474;2024-02-21T06:54:44;19.35;;;7.00;;
72611;SDS011;60655;52.182;4.474;2024-02-21T06:56:45;17.33;;;7.32;;
72611;SDS011;60655;52.182;4.474;2024-02-21T06:58:48;19.42;;;7.65;;
72611;SDS011;60655;52.182;4.474;2024-02-21T07:02:50;18.25;;;7.53;;
72611;SDS011;60655;52.182;4.474;2024-02-21T07:06:51;17.23;;;6.72;;
72611;SDS011;60655;52.182;4.474;2024-02-21T07:10:53;17.20;;;7.30;;
72611;SDS011;60655;52.182;4.474;2024-02-21T07:14:55;23.48;;;7.68;;
72611;SDS011;60655;52.182;4.474;2024-02-21T07:16:56;17.88;;;7.28;;
72611;SDS011;60655;52.182;4.474;2024-02-21T07:18:57;18.33;;;7.43;;
72611;SDS011;60655;52.182;4.474;2024-02-21T07:20:58;15.80;;;7.53;;
72611;SDS011;60655;52.182;4.474;2024-02-21T07:25:00;20.63;;;7.68;;
72611;SDS011;60655;52.182;4.474;2024-02-21T07:29:04;19.45;;;7.75;;
72611;SDS011;60655;52.182;4.474;2024-02-21T07:31:05;22.40;;;8.32;;
72611;SDS011;60655;52.182;4.474;2024-02-21T07:35:07;21.15;;;7.82;;
72611;SDS011;60655;52.182;4.474;2024-02-21T07:37:12;17.77;;;8.48;;
72611;SDS011;60655;52.182;4.474;2024-02-21T07:41:14;17.92;;;7.47;;
72611;SDS011;60655;52.182;4.474;2024-02-21T07:45:15;17.67;;;7.38;;
72611;SDS011;60655;52.182;4.474;2024-02-21T07:49:17;22.55;;;7.47;;
72611;SDS011;60655;52.182;4.474;2024-02-21T07:51:18;20.05;;;7.78;;
72611;SDS011;60655;52.182;4.474;2024-02-21T07:53:20;19.80;;;7.93;;
72611;SDS011;60655;52.182;4.474;2024-02-21T07:55:21;18.63;;;8.00;;
72611;SDS011;60655;52.182;4.474;2024-02-21T07:59:23;18.95;;;7.40;;
72611;SDS011;60655;52.182;4.474;2024-02-21T08:03:25;20.05;;;7.75;;
72611;SDS011;60655;52.182;4.474;2024-02-21T08:05:26;20.13;;;7.82;;
72611;SDS011;60655;52.182;4.474;2024-02-21T08:09:29;24.08;;;7.35;;
72611;SDS011;60655;52.182;4.474;2024-02-21T08:11:30;20.98;;;8.38;;
72611;SDS011;60655;52.182;4.474;2024-02-21T08:13:31;23.00;;;8.38;;
72611;SDS011;60655;52.182;4.474;2024-02-21T08:15:32;22.48;;;8.75;;
72611;SDS011;60655;52.182;4.474;2024-02-21T08:17:34;19.48;;;7.85;;
72611;SDS011;60655;52.182;4.474;2024-02-21T08:19:36;15.52;;;7.80;;
72611;SDS011;60655;52.182;4.474;2024-02-21T08:21:37;21.65;;;9.00;;
72611;SDS011;60655;52.182;4.474;2024-02-21T08:23:38;21.83;;;8.00;;
72611;SDS011;60655;52.182;4.474;2024-02-21T08:25:39;21.33;;;7.97;;
72611;SDS011;60655;52.182;4.474;2024-02-21T08:29:40;18.73;;;6.50;;
72611;SDS011;60655;52.182;4.474;2024-02-21T08:33:42;17.05;;;6.80;;
72611;SDS011;60655;52.182;4.474;2024-02-21T08:37:43;16.20;;;6.40;;
72611;SDS011;60655;52.182;4.474;2024-02-21T08:39:45;18.27;;;6.88;;
72611;SDS011;60655;52.182;4.474;2024-02-21T08:41:47;19.85;;;7.38;;
72611;SDS011;60655;52.182;4.474;2024-02-21T08:45:49;16.60;;;6.55;;
72611;SDS011;60655;52.182;4.474;2024-02-21T08:47:50;18.58;;;6.93;;
72611;SDS011;60655;52.182;4.474;2024-02-21T08:51:52;17.52;;;7.53;;
72611;SDS011;60655;52.182;4.474;2024-02-21T08:55:54;20.17;;;8.20;;
72611;SDS011;60655;52.182;4.474;2024-02-21T08:57:55;20.95;;;8.93;;
72611;SDS011;60655;52.182;4.474;2024-02-21T09:01:56;20.27;;;8.93;;
72611;SDS011;60655;52.182;4.474;2024-02-21T09:03:57;22.95;;;10.25;;
72611;SDS011;60655;52.182;4.474;2024-02-21T09:05:59;25.08;;;10.35;;
72611;SDS011;60655;52.182;4.474;2024-02-21T09:08:00;24.55;;;10.75;;
72611;SDS011;60655;52.182;4.474;2024-02-21T09:10:01;22.92;;;10.63;;
72611;SDS011;60655;52.182;4.474;2024-02-21T09:12:04;22.65;;;9.38;;
72611;SDS011;60655;52.182;4.474;2024-02-21T09:14:06;21.80;;;10.35;;
72611;SDS011;60655;52.182;4.474;2024-02-21T09:16:07;24.20;;;10.55;;
72611;SDS011;60655;52.182;4.474;2024-02-21T09:18:09;21.60;;;9.52;;
72611;SDS011;60655;52.182;4.474;2024-02-21T09:20:10;22.08;;;9.63;;
72611;SDS011;60655;52.182;4.474;2024-02-21T09:22:12;22.38;;;9.57;;
72611;SDS011;60655;52.182;4.474;2024-02-21T09:24:13;19.33;;;9.18;;
72611;SDS011;60655;52.182;4.474;2024-02-21T09:26:14;23.65;;;9.40;;
72611;SDS011;60655;52.182;4.474;2024-02-21T09:28:16;19.23;;;9.20;;
72611;SDS011;60655;52.182;4.474;2024-02-21T09:30:17;18.42;;;9.40;;
72611;SDS011;60655;52.182;4.474;2024-02-21T09:32:19;19.90;;;8.48;;
72611;SDS011;60655;52.182;4.474;2024-02-21T09:34:20;22.60;;;9.57;;
72611;SDS011;60655;52.182;4.474;2024-02-21T09:36:22;20.55;;;8.50;;
72611;SDS011;60655;52.182;4.474;2024-02-21T09:38:23;20.85;;;8.27;;
72611;SDS011;60655;52.182;4.474;2024-02-21T09:40:24;19.67;;;8.07;;
72611;SDS011;60655;52.182;4.474;2024-02-21T09:42:29;20.95;;;8.13;;
72611;SDS011;60655;52.182;4.474;2024-02-21T09:44:39;16.35;;;7.88;;
72611;SDS011;60655;52.182;4.474;2024-02-21T09:51:22;21.10;;;7.80;;
72611;SDS011;60655;52.182;4.474;2024-02-21T09:53:24;19.25;;;8.48;;
72611;SDS011;60655;52.182;4.474;2024-02-21T09:55:25;18.33;;;8.30;;
72611;SDS011;60655;52.182;4.474;2024-02-21T09:57:28;15.18;;;7.43;;
72611;SDS011;60655;52.182;4.474;2024-02-21T09:59:30;18.88;;;8.48;;
72611;SDS011;60655;52.182;4.474;2024-02-21T10:01:32;18.00;;;8.18;;
72611;SDS011;60655;52.182;4.474;2024-02-21T10:03:33;17.55;;;8.20;;
72611;SDS011;60655;52.182;4.474;2024-02-21T10:05:35;17.25;;;8.35;;
72611;SDS011;60655;52.182;4.474;2024-02-21T10:07:36;16.77;;;8.07;;
72611;SDS011;60655;52.182;4.474;2024-02-21T10:09:40;20.58;;;8.57;;
72611;SDS011;60655;52.182;4.474;2024-02-21T10:11:42;25.10;;;9.18;;
72611;SDS011;60655;52.182;4.474;2024-02-21T10:13:43;20.17;;;8.35;;
72611;SDS011;60655;52.182;4.474;2024-02-21T10:15:45;19.58;;;8.45;;
72611;SDS011;60655;52.182;4.474;2024-02-21T10:18:00;18.23;;;7.88;;
72611;SDS011;60655;52.182;4.474;2024-02-21T10:20:08;21.38;;;8.15;;
72611;SDS011;60655;52.182;4.474;2024-02-21T10:22:10;18.73;;;8.15;;
72611;SDS011;60655;52.182;4.474;2024-02-21T10:24:11;20.65;;;7.55;;
72611;SDS011;60655;52.182;4.474;2024-02-21T10:26:13;17.90;;;7.35;;
72611;SDS011;60655;52.182;4.474;2024-02-21T10:28:15;17.48;;;7.45;;
72611;SDS011;60655;52.182;4.474;2024-02-21T10:30:17;15.80;;;7.05;;
72611;SDS011;60655;52.182;4.474;2024-02-21T10:32:19;14.57;;;6.95;;
72611;SDS011;60655;52.182;4.474;2024-02-21T10:34:20;15.02;;;7.22;;
72611;SDS011;60655;52.182;4.474;2024-02-21T10:36:21;18.23;;;7.47;;
72611;SDS011;60655;52.182;4.474;2024-02-21T10:38:22;15.63;;;7.30;;
72611;SDS011;60655;52.182;4.474;2024-02-21T10:40:23;14.50;;;7.30;;
72611;SDS011;60655;52.182;4.474;2024-02-21T10:42:26;20.80;;;8.48;;
72611;SDS011;60655;52.182;4.474;2024-02-21T10:44:32;18.88;;;7.70;;
72611;SDS011;60655;52.182;4.474;2024-02-21T10:46:34;19.70;;;7.90;;
72611;SDS011;60655;52.182;4.474;2024-02-21T10:48:43;18.45;;;8.52;;
72611;SDS011;60655;52.182;4.474;2024-02-21T10:50:53;22.17;;;9.95;;
72611;SDS011;60655;52.182;4.474;2024-02-21T10:53:09;19.13;;;8.95;;
72611;SDS011;60655;52.182;4.474;2024-02-21T10:55:37;17.75;;;8.77;;
72611;SDS011;60655;52.182;4.474;2024-02-21T10:57:42;17.73;;;8.25;;
72611;SDS011;60655;52.182;4.474;2024-02-21T10:59:44;17.65;;;8.50;;
72611;SDS011;60655;52.182;4.474;2024-02-21T11:01:45;18.98;;;8.10;;
72611;SDS011;60655;52.182;4.474;2024-02-21T11:03:47;16.33;;;7.95;;
72611;SDS011;60655;52.182;4.474;2024-02-21T11:05:50;17.75;;;8.50;;
72611;SDS011;60655;52.182;4.474;2024-02-21T11:07:52;18.17;;;8.20;;
72611;SDS011;60655;52.182;4.474;2024-02-21T11:09:53;17.85;;;8.75;;
72611;SDS011;60655;52.182;4.474;2024-02-21T11:11:57;16.65;;;8.43;;
72611;SDS011;60655;52.182;4.474;2024-02-21T11:14:05;16.73;;;8.20;;
72611;SDS011;60655;52.182;4.474;2024-02-21T11:16:10;16.40;;;8.18;;
72611;SDS011;60655;52.182;4.474;2024-02-21T11:18:12;18.40;;;8.38;;
72611;SDS011;60655;52.182;4.474;2024-02-21T11:20:33;19.15;;;8.07;;
72611;SDS011;60655;52.182;4.474;2024-02-21T11:22:40;17.83;;;8.18;;
72611;SDS011;60655;52.182;4.474;2024-02-21T11:24:43;17.08;;;8.52;;
72611;SDS011;60655;52.182;4.474;2024-02-21T11:26:44;15.65;;;8.38;;
72611;SDS011;60655;52.182;4.474;2024-02-21T11:28:59;16.55;;;8.52;;
72611;SDS011;60655;52.182;4.474;2024-02-21T11:31:12;16.65;;;8.50;;
72611;SDS011;60655;52.182;4.474;2024-02-21T11:33:16;17.10;;;8.27;;
72611;SDS011;60655;52.182;4.474;2024-02-21T11:35:20;16.10;;;7.70;;
72611;SDS011;60655;52.182;4.474;2024-02-21T11:37:21;16.73;;;8.43;;
72611;SDS011;60655;52.182;4.474;2024-02-21T11:39:26;14.82;;;7.82;;
72611;SDS011;60655;52.182;4.474;2024-02-21T11:41:27;16.90;;;7.85;;
72611;SDS011;60655;52.182;4.474;2024-02-21T11:43:28;19.02;;;8.48;;
72611;SDS011;60655;52.182;4.474;2024-02-21T11:45:29;15.70;;;8.45;;
72611;SDS011;60655;52.182;4.474;2024-02-21T11:47:30;15.98;;;7.53;;
72611;SDS011;60655;52.182;4.474;2024-02-21T11:49:31;17.13;;;7.65;;
72611;SDS011;60655;52.182;4.474;2024-02-21T11:51:31;15.07;;;7.82;;
72611;SDS011;60655;52.182;4.474;2024-02-21T11:53:36;15.45;;;7.43;;
72611;SDS011;60655;52.182;4.474;2024-02-21T11:55:37;17.38;;;8.23;;
72611;SDS011;60655;52.182;4.474;2024-02-21T11:57:38;17.58;;;7.80;;
72611;SDS011;60655;52.182;4.474;2024-02-21T11:59:46;14.88;;;7.65;;
72611;SDS011;60655;52.182;4.474;2024-02-21T12:01:50;15.05;;;7.53;;
72611;SDS011;60655;52.182;4.474;2024-02-21T12:03:54;14.80;;;7.75;;
72611;SDS011;60655;52.182;4.474;2024-02-21T12:05:57;15.68;;;7.43;;
72611;SDS011;60655;52.182;4.474;2024-02-21T12:07:59;15.55;;;7.22;;
72611;SDS011;60655;52.182;4.474;2024-02-21T12:10:01;14.02;;;7.13;;
72611;SDS011;60655;52.182;4.474;2024-02-21T12:12:02;15.88;;;6.85;;
72611;SDS011;60655;52.182;4.474;2024-02-21T12:14:05;14.88;;;7.00;;
72611;SDS011;60655;52.182;4.474;2024-02-21T12:16:06;14.05;;;7.13;;
72611;SDS011;60655;52.182;4.474;2024-02-21T12:18:07;18.30;;;7.35;;
72611;SDS011;60655;52.182;4.474;2024-02-21T12:20:08;14.40;;;7.55;;
72611;SDS011;60655;52.182;4.474;2024-02-21T12:22:09;14.15;;;6.45;;
72611;SDS011;60655;52.182;4.474;2024-02-21T12:24:26;13.88;;;6.93;;
72611;SDS011;60655;52.182;4.474;2024-02-21T12:26:28;13.50;;;6.43;;
72611;SDS011;60655;52.182;4.474;2024-02-21T12:28:29;11.40;;;6.00;;
72611;SDS011;60655;52.182;4.474;2024-02-21T12:30:30;11.10;;;6.20;;
72611;SDS011;60655;52.182;4.474;2024-02-21T12:32:33;12.63;;;5.50;;
72611;SDS011;60655;52.182;4.474;2024-02-21T12:34:34;12.10;;;5.78;;
72611;SDS011;60655;52.182;4.474;2024-02-21T12:36:43;12.68;;;6.25;;
72611;SDS011;60655;52.182;4.474;2024-02-21T12:38:45;12.55;;;6.13;;
72611;SDS011;60655;52.182;4.474;2024-02-21T12:40:47;11.30;;;5.57;;
72611;SDS011;60655;52.182;4.474;2024-02-21T12:42:50;11.50;;;6.00;;
72611;SDS011;60655;52.182;4.474;2024-02-21T12:44:53;12.77;;;6.03;;
72611;SDS011;60655;52.182;4.474;2024-02-21T12:46:54;13.02;;;5.82;;
72611;SDS011;60655;52.182;4.474;2024-02-21T12:48:55;12.35;;;5.70;;
72611;SDS011;60655;52.182;4.474;2024-02-21T12:50:56;11.60;;;5.85;;
72611;SDS011;60655;52.182;4.474;2024-02-21T12:52:57;13.00;;;6.15;;
72611;SDS011;60655;52.182;4.474;2024-02-21T12:54:59;17.00;;;6.00;;
72611;SDS011;60655;52.182;4.474;2024-02-21T12:56:59;12.15;;;6.03;;
72611;SDS011;60655;52.182;4.474;2024-02-21T12:59:03;12.32;;;6.30;;
72611;SDS011;60655;52.182;4.474;2024-02-21T13:01:04;19.70;;;7.00;;
72611;SDS011;60655;52.182;4.474;2024-02-21T13:03:05;11.02;;;6.13;;
72611;SDS011;60655;52.182;4.474;2024-02-21T13:05:06;12.57;;;6.50;;
72611;SDS011;60655;52.182;4.474;2024-02-21T13:07:08;14.57;;;6.88;;
72611;SDS011;60655;52.182;4.474;2024-02-21T13:09:09;11.90;;;6.10;;
72611;SDS011;60655;52.182;4.474;2024-02-21T13:11:12;15.18;;;6.60;;
72611;SDS011;60655;52.182;4.474;2024-02-21T13:13:13;13.60;;;6.35;;
72611;SDS011;60655;52.182;4.474;2024-02-21T13:15:14;12.00;;;6.10;;
72611;SDS011;60655;52.182;4.474;2024-02-21T13:17:16;12.13;;;6.07;;
72611;SDS011;60655;52.182;4.474;2024-02-21T13:19:17;14.90;;;5.90;;
72611;SDS011;60655;52.182;4.474;2024-02-21T13:21:18;12.45;;;6.25;;
72611;SDS011;60655;52.182;4.474;2024-02-21T13:23:19;11.98;;;5.78;;
72611;SDS011;60655;52.182;4.474;2024-02-21T13:25:22;14.73;;;6.38;;
72611;SDS011;60655;52.182;4.474;2024-02-21T13:27:22;14.38;;;6.85;;
72611;SDS011;60655;52.182;4.474;2024-02-21T13:29:24;16.50;;;6.80;;
72611;SDS011;60655;52.182;4.474;2024-02-21T13:31:24;12.10;;;6.43;;
72611;SDS011;60655;52.182;4.474;2024-02-21T13:33:25;14.63;;;6.63;;
72611;SDS011;60655;52.182;4.474;2024-02-21T13:35:26;17.25;;;6.68;;
72611;SDS011;60655;52.182;4.474;2024-02-21T13:37:28;13.10;;;6.70;;
72611;SDS011;60655;52.182;4.474;2024-02-21T13:39:29;13.07;;;6.60;;
72611;SDS011;60655;52.182;4.474;2024-02-21T13:41:30;14.80;;;7.25;;
72611;SDS011;60655;52.182;4.474;2024-02-21T13:43:31;16.95;;;7.30;;
72611;SDS011;60655;52.182;4.474;2024-02-21T13:45:32;16.63;;;7.57;;
72611;SDS011;60655;52.182;4.474;2024-02-21T13:49:34;15.10;;;7.20;;
72611;SDS011;60655;52.182;4.474;2024-02-21T13:51:36;14.43;;;7.55;;